Decoded Metar for LYVR (VRSAC in SERBIA) (IATA:N/A) | Meteo·Mobile Aviation Weather
aviador You're here:

LYVR Decoded Metar

VRSAC in SERBIA
Report Time2019-04-18 10:00:00
UTC Time2019-04-18 10:21:17
Flight Rules vfr VFR
WindVRB at 06 kt
Visibility9999 m
Phenomena:N/A
Clouds:Scattered 030 Hf
Expected CloudBase > 4,400 ft AGL from Temp-Dew spread
CeilingNone
Temp15°C (ISA +1)
Dew Point04°C (48% RH)
AAT11.5°C
QNH1026 hPa
Density Alt20 ft
Elevation279 ft
Report Wrong Elevation
Raw Report
METAR LYVR 181000Z VRB06KT 9999 SCT030 15/04 Q1026 NOSIG=

Extra information for LYVR:More info

Metar Taf Metar & Taf Last 4 Metars F.Rules Stats Wind Profile Meteogram Temp Stats Airport Information Weather charts Add Link Nearby VenuesMetar ALERT Operation Metar Decoded Social comments